Time;durP1;ratioP1;P1;durP2;ratioP2;P2;SDS_P1;SDS_P2;PMS_P1;PMS_P2;Temp;Humidity;BMP_temperature;BMP_pressure;BME280_temperature;BME280_humidity;BME280_pressure;Samples;Min_cycle;Max_cycle;Signal;HPM_P1;HPM_P2
2023/08/14 00:00:38;;;;;;;2.77;2.50;;;;;;;24.87;43.39;99773.44;5077405;28;20200;-71
2023/08/14 00:03:05;;;;;;;10.67;2.93;;;;;;;24.96;43.33;99762.78;5094365;28;20229;-71
2023/08/14 00:05:32;;;;;;;3.23;2.80;;;;;;;25.04;43.40;99762.97;5094643;28;20257;-72
2023/08/14 00:07:59;;;;;;;2.53;2.43;;;;;;;25.04;42.96;99773.06;5080444;28;20196;-72
2023/08/14 00:10:27;;;;;;;2.77;2.57;;;;;;;25.05;43.27;99769.22;5074315;28;20797;-72
2023/08/14 00:12:54;;;;;;;3.90;2.27;;;;;;;25.08;42.57;99769.47;5074578;28;20223;-71
2023/08/14 00:15:21;;;;;;;2.63;2.53;;;;;;;25.12;42.24;99772.44;5074140;28;20565;-72
2023/08/14 00:17:47;;;;;;;2.67;2.47;;;;;;;25.13;42.96;99778.69;5086194;28;20195;-72
2023/08/14 00:20:14;;;;;;;3.17;2.80;;;;;;;25.15;43.24;99780.00;5094310;28;20199;-72
2023/08/14 00:22:41;;;;;;;3.47;2.47;;;;;;;25.15;43.45;99768.34;5094334;28;20207;-72
2023/08/14 00:25:10;;;;;;;3.10;2.90;;;;;;;25.16;43.52;99767.25;5094272;28;20244;-71
2023/08/14 00:27:38;;;;;;;3.87;2.80;;;;;;;25.18;43.79;99765.84;5094581;28;20265;-71
2023/08/14 00:30:05;;;;;;;3.20;2.77;;;;;;;25.31;43.59;99769.88;5094608;28;20199;-72
2023/08/14 00:32:32;;;;;;;3.70;2.23;;;;;;;25.29;43.86;99769.34;5091654;28;20219;-73
2023/08/14 00:34:59;;;;;;;2.63;2.53;;;;;;;25.39;43.55;99777.44;5074350;28;20630;-71
2023/08/14 00:37:41;;;;;;;3.07;2.77;;;;;;;25.37;43.47;99772.28;5073683;28;20285;-72
2023/08/14 00:40:10;;;;;;;2.73;2.53;;;;;;;25.21;44.50;99775.34;5073946;28;20184;-71
2023/08/14 00:42:38;;;;;;;2.80;2.60;;;;;;;25.19;43.99;99772.13;5074302;28;20199;-72
2023/08/14 00:45:06;;;;;;;2.50;2.40;;;;;;;25.22;43.67;99774.25;5074095;28;20231;-70
2023/08/14 00:47:34;;;;;;;2.73;2.60;;;;;;;25.18;43.73;99775.94;5073918;28;20191;-71
2023/08/14 00:50:01;;;;;;;6.73;3.13;;;;;;;25.12;43.28;99779.78;5086026;28;20732;-71
2023/08/14 00:52:31;;;;;;;2.63;2.40;;;;;;;25.02;44.27;99782.59;5093962;28;20295;-72
2023/08/14 00:55:00;;;;;;;4.10;2.53;;;;;;;25.10;44.65;99779.28;5094263;28;20197;-72
2023/08/14 00:57:27;;;;;;;2.70;2.50;;;;;;;25.06;44.48;99775.50;5092690;28;20194;-73
2023/08/14 00:59:55;;;;;;;2.97;2.77;;;;;;;25.03;44.02;99771.41;5093646;28;20195;-73
2023/08/14 01:02:23;;;;;;;3.13;2.80;;;;;;;25.15;44.24;99781.94;5093828;28;20256;-72
2023/08/14 01:04:50;;;;;;;2.70;2.50;;;;;;;25.22;44.29;99780.50;5086628;28;20195;-71
2023/08/14 01:07:17;;;;;;;4.73;2.80;;;;;;;25.28;43.15;99781.31;5082725;28;20196;-72
2023/08/14 01:09:44;;;;;;;4.40;2.97;;;;;;;25.23;43.81;99779.41;5093431;28;20347;-71
2023/08/14 01:12:17;;;;;;;4.60;2.80;;;;;;;25.25;42.48;99773.69;5093628;28;20280;-71
2023/08/14 01:14:48;;;;;;;3.10;2.80;;;;;;;25.00;43.94;99780.94;5093279;28;20183;-71
2023/08/14 01:17:18;;;;;;;3.33;3.13;;;;;;;24.93;43.44;99779.66;5093337;28;20639;-71
2023/08/14 01:19:49;;;;;;;4.57;3.60;;;;;;;24.64;44.16;99776.84;5093179;28;20681;-72
2023/08/14 01:22:28;;;;;;;4.00;3.53;;;;;;;24.16;44.98;99776.75;5091226;28;20191;-72
2023/08/14 01:25:18;;;;;;;7.10;3.37;;;;;;;24.03;46.68;99778.19;5093661;28;20239;-72
2023/08/14 01:27:45;;;;;;;3.57;3.37;;;;;;;24.01;47.05;99783.06;5093064;28;20259;-72
2023/08/14 01:30:12;;;;;;;4.90;3.60;;;;;;;24.01;47.09;99780.34;5093034;28;20233;-72
2023/08/14 01:32:39;;;;;;;4.73;4.33;;;;;;;23.70;47.55;99776.06;5093098;28;20220;-72
2023/08/14 01:35:07;;;;;;;5.73;4.10;;;;;;;23.52;48.72;99779.31;5093333;28;20264;-72
2023/08/14 01:37:41;;;;;;;4.27;3.87;;;;;;;23.66;48.92;99790.44;5077115;28;20294;-72
2023/08/14 01:40:22;;;;;;;6.20;4.00;;;;;;;23.90;47.80;99786.06;5073021;28;20269;-72
2023/08/14 01:42:53;;;;;;;4.47;4.17;;;;;;;24.07;47.67;99770.28;5072516;28;20237;-72
2023/08/14 01:45:22;;;;;;;4.47;4.00;;;;;;;24.21;46.42;99780.28;5072875;28;20187;-72
2023/08/14 01:47:51;;;;;;;4.20;4.00;;;;;;;24.26;46.92;99774.81;5072310;28;20658;-72
2023/08/14 01:50:19;;;;;;;5.10;3.93;;;;;;;24.26;46.57;99780.25;5072599;28;20192;-73
2023/08/14 01:52:46;;;;;;;4.33;4.03;;;;;;;23.88;48.00;99767.31;5078321;28;20215;-72
2023/08/14 01:55:14;;;;;;;4.40;4.00;;;;;;;24.02;47.30;99773.03;5092955;28;20194;-73
2023/08/14 01:57:40;;;;;;;4.20;3.90;;;;;;;24.11;47.35;99766.75;5092565;28;20198;-72
2023/08/14 02:00:09;;;;;;;4.23;3.70;;;;;;;24.21;47.38;99768.59;5092482;28;20617;-72
2023/08/14 02:02:37;;;;;;;4.07;3.77;;;;;;;24.31;46.88;99766.66;5091455;28;20210;-72
2023/08/14 02:05:04;;;;;;;4.47;4.17;;;;;;;24.41;46.77;99771.22;5092689;28;20195;-72
2023/08/14 02:07:30;;;;;;;3.90;3.60;;;;;;;24.52;46.63;99770.91;5081020;28;20198;-72
2023/08/14 02:09:57;;;;;;;4.77;3.93;;;;;;;24.64;46.29;99765.97;5086796;28;20194;-73
2023/08/14 02:12:25;;;;;;;11.80;3.53;;;;;;;24.70;46.41;99770.28;5092190;28;20280;-72
2023/08/14 02:14:52;;;;;;;3.63;3.43;;;;;;;24.58;46.31;99767.06;5092471;28;20252;-72
2023/08/14 02:17:18;;;;;;;4.13;3.60;;;;;;;24.51;46.44;99769.25;5090003;28;20194;-72
2023/08/14 02:19:45;;;;;;;6.77;3.73;;;;;;;24.45;46.64;99764.97;5091642;28;20344;-72
2023/08/14 02:22:12;;;;;;;3.70;3.50;;;;;;;24.46;46.23;99761.16;5091814;28;20199;-72
2023/08/14 02:24:38;;;;;;;4.47;3.40;;;;;;;24.46;46.54;99750.28;5089884;28;20224;-72
2023/08/14 02:27:05;;;;;;;3.77;3.57;;;;;;;24.46;47.17;99761.16;5091714;28;20619;-72
2023/08/14 02:29:33;;;;;;;3.80;3.50;;;;;;;24.54;46.42;99765.19;5092099;28;20195;-73
2023/08/14 02:32:00;;;;;;;3.33;3.13;;;;;;;24.58;46.81;99760.81;5092266;28;20351;-71
2023/08/14 02:34:34;;;;;;;4.00;3.70;;;;;;;24.60;46.64;99764.06;5092094;28;20256;-72
2023/08/14 02:37:01;;;;;;;4.30;3.50;;;;;;;24.70;46.46;99759.41;5092080;28;20219;-72
2023/08/14 02:39:29;;;;;;;7.73;3.50;;;;;;;24.75;46.35;99772.97;5092126;28;20187;-73
2023/08/14 02:41:56;;;;;;;6.03;3.50;;;;;;;24.74;46.37;99770.53;5074814;28;20199;-73
2023/08/14 02:44:23;;;;;;;4.43;3.90;;;;;;;24.77;46.67;99770.78;5071924;28;20195;-73
2023/08/14 02:46:51;;;;;;;4.00;3.60;;;;;;;24.84;45.90;99771.25;5071610;28;20610;-73
2023/08/14 02:49:17;;;;;;;6.67;3.90;;;;;;;24.83;46.08;99769.66;5071947;28;20253;-73
2023/08/14 02:51:44;;;;;;;10.17;4.00;;;;;;;24.82;45.98;99778.91;5071533;28;20725;-72
2023/08/14 02:54:11;;;;;;;6.77;3.77;;;;;;;24.82;45.79;99772.66;5071790;28;20203;-72
2023/08/14 02:56:38;;;;;;;16.97;4.53;;;;;;;24.65;46.30;99762.16;5078227;28;20260;-72
2023/08/14 02:59:05;;;;;;;4.47;3.53;;;;;;;24.36;46.63;99736.78;5091511;28;20703;-71
2023/08/14 03:01:31;;;;;;;5.90;3.63;;;;;;;24.21;47.26;99755.00;5091870;28;20195;-70
2023/08/14 03:03:59;;;;;;;4.53;3.57;;;;;;;23.92;48.13;99765.72;5091527;28;20670;-71
2023/08/14 03:06:29;;;;;;;4.40;3.90;;;;;;;23.78;48.77;99733.97;5071669;28;20741;-70
2023/08/14 03:08:56;;;;;;;4.90;3.70;;;;;;;23.97;48.14;99765.69;5071687;28;20204;-72
2023/08/14 03:11:23;;;;;;;6.43;3.47;;;;;;;24.04;48.33;99760.78;5071318;28;20663;-72
2023/08/14 03:13:50;;;;;;;3.80;3.50;;;;;;;24.06;48.51;99758.59;5088393;28;20210;-73
2023/08/14 03:16:16;;;;;;;3.50;3.20;;;;;;;24.16;48.33;99755.03;5091427;28;20194;-72
2023/08/14 03:18:43;;;;;;;4.10;3.80;;;;;;;24.22;47.54;99757.47;5091471;28;20817;-72
2023/08/14 03:21:11;;;;;;;4.33;3.93;;;;;;;24.20;47.50;99753.41;5090346;28;20251;-72
2023/08/14 03:23:38;;;;;;;3.70;3.40;;;;;;;23.98;48.21;99745.59;5091836;28;20203;-72
2023/08/14 03:26:05;;;;;;;6.83;3.43;;;;;;;23.76;48.73;99758.69;5091668;28;20198;-73
2023/08/14 03:28:32;;;;;;;3.87;3.57;;;;;;;23.46;49.64;99747.88;5091328;28;20248;-72
2023/08/14 03:30:59;;;;;;;4.30;3.40;;;;;;;23.25;50.58;99750.88;5091234;28;20668;-73
2023/08/14 03:33:26;;;;;;;3.87;3.50;;;;;;;23.01;51.22;99750.59;5094956;28;20585;-72
2023/08/14 03:35:53;;;;;;;6.97;3.60;;;;;;;22.91;51.35;99755.19;5095624;28;20195;-72
2023/08/14 03:38:21;;;;;;;4.07;3.73;;;;;;;22.69;52.32;99752.72;5091914;28;20319;-72
2023/08/14 03:40:48;;;;;;;4.73;3.67;;;;;;;22.61;52.90;99755.13;5095238;28;20204;-72
2023/08/14 03:43:15;;;;;;;6.37;3.60;;;;;;;22.67;52.74;99754.84;5091889;28;20191;-71
2023/08/14 03:45:41;;;;;;;4.23;3.67;;;;;;;22.88;52.52;99761.97;5094744;28;20256;-71
2023/08/14 03:48:08;;;;;;;3.27;3.03;;;;;;;23.13;51.73;99753.03;5094858;28;20199;-72
2023/08/14 03:50:35;;;;;;;8.37;3.93;;;;;;;23.42;51.30;99760.38;5094855;28;20572;-72
2023/08/14 03:53:01;;;;;;;6.43;3.63;;;;;;;23.69;50.51;99758.13;5095148;28;20216;-72
2023/08/14 03:55:29;;;;;;;4.80;3.50;;;;;;;24.00;49.47;99765.16;5091939;28;20254;-73
2023/08/14 03:57:57;;;;;;;7.77;3.60;;;;;;;24.30;48.15;99765.03;5075876;28;20247;-72
2023/08/14 04:00:24;;;;;;;11.30;3.93;;;;;;;24.71;46.86;99765.66;5074357;28;20195;-72
2023/08/14 04:02:50;;;;;;;4.20;3.80;;;;;;;25.22;46.01;99766.09;5074610;28;20748;-73
2023/08/14 04:05:17;;;;;;;7.93;3.77;;;;;;;25.81;43.98;99774.84;5074664;28;20188;-73
2023/08/14 04:07:44;;;;;;;8.97;3.67;;;;;;;26.36;42.59;99771.47;5088032;28;20194;-72
2023/08/14 04:10:11;;;;;;;15.23;4.77;;;;;;;26.81;41.26;99774.44;5092715;28;20225;-74
2023/08/14 04:12:39;;;;;;;9.03;3.70;;;;;;;27.30;40.09;99787.59;5095121;28;20284;-73
2023/08/14 04:15:13;;;;;;;5.40;4.13;;;;;;;27.59;39.16;99774.53;5094506;28;20571;-74
2023/08/14 04:17:40;;;;;;;7.10;4.07;;;;;;;28.03;38.12;99791.22;5094686;28;20636;-72
2023/08/14 04:20:08;;;;;;;8.60;4.60;;;;;;;28.32;37.76;99789.00;5094358;28;20668;-73
2023/08/14 04:22:35;;;;;;;11.17;4.10;;;;;;;28.75;36.89;99798.50;5094433;28;20658;-73
2023/08/14 04:25:02;;;;;;;8.07;3.63;;;;;;;28.82;35.79;99760.56;5094724;28;20278;-73
2023/08/14 04:27:28;;;;;;;4.07;3.47;;;;;;;29.33;35.46;99810.28;5079717;28;20257;-73
2023/08/14 04:29:57;;;;;;;9.33;3.77;;;;;;;29.41;35.65;99811.44;5074304;28;20346;-73
2023/08/14 04:32:24;;;;;;;3.73;3.53;;;;;;;29.65;35.14;99811.97;5073892;28;20192;-75
2023/08/14 04:34:50;;;;;;;4.30;3.90;;;;;;;29.85;34.58;99801.31;5073911;28;20637;-75
2023/08/14 04:37:17;;;;;;;6.00;3.37;;;;;;;30.20;34.13;99818.72;5073740;28;20710;-75
2023/08/14 04:39:44;;;;;;;8.07;4.87;;;;;;;30.30;33.41;99823.94;5074121;28;20257;-75
2023/08/14 04:42:10;;;;;;;17.37;4.70;;;;;;;30.54;33.30;99824.31;5077458;28;20196;-75
2023/08/14 04:44:37;;;;;;;9.67;4.90;;;;;;;30.54;33.35;99833.34;5093657;28;20191;-75
2023/08/14 04:47:05;;;;;;;13.03;4.23;;;;;;;30.44;33.29;99830.91;5093852;28;20663;-75
2023/08/14 04:49:33;;;;;;;9.17;4.60;;;;;;;30.48;33.31;99836.56;5094222;28;20199;-75
2023/08/14 04:51:59;;;;;;;16.93;5.40;;;;;;;30.38;32.95;99829.41;5093692;28;20195;-75
2023/08/14 04:54:26;;;;;;;18.57;5.10;;;;;;;30.46;33.51;99839.59;5093747;28;20250;-76
2023/08/14 04:56:53;;;;;;;5.33;4.53;;;;;;;30.75;32.88;99839.91;5089354;28;20227;-75
2023/08/14 04:59:20;;;;;;;15.80;4.37;;;;;;;31.03;32.26;99849.44;5082711;28;20556;-75
2023/08/14 05:01:46;;;;;;;13.23;4.53;;;;;;;31.53;31.94;99850.63;5082086;28;20251;-75
2023/08/14 05:04:15;;;;;;;22.67;5.33;;;;;;;31.86;31.22;99853.66;5083483;28;20203;-74
2023/08/14 05:06:41;;;;;;;8.90;3.70;;;;;;;32.00;30.71;99852.31;5080674;28;20242;-76
2023/08/14 05:09:08;;;;;;;12.33;4.13;;;;;;;32.53;30.07;99849.03;5083779;28;20191;-75
2023/08/14 05:11:35;;;;;;;27.03;5.63;;;;;;;32.58;29.65;99841.41;5082424;28;20188;-75
2023/08/14 05:14:01;;;;;;;7.00;3.80;;;;;;;32.31;30.04;99850.16;5082712;28;20211;-74
2023/08/14 05:16:28;;;;;;;7.77;4.10;;;;;;;32.20;30.30;99848.84;5083692;28;20667;-74
2023/08/14 05:18:55;;;;;;;7.20;4.17;;;;;;;32.45;29.83;99853.47;5082768;28;20256;-75
2023/08/14 05:21:23;;;;;;;9.07;3.40;;;;;;;32.95;29.35;99857.06;5082426;28;20245;-76
2023/08/14 05:23:53;;;;;;;6.00;4.17;;;;;;;33.23;28.86;99858.16;5092507;28;20709;-73
2023/08/14 05:26:20;;;;;;;8.40;3.33;;;;;;;33.43;28.45;99850.25;5087989;28;20187;-71
2023/08/14 05:28:46;;;;;;;5.50;3.57;;;;;;;33.52;28.39;99849.03;5092619;28;20659;-72
2023/08/14 05:31:13;;;;;;;5.72;3.80;;;;;;;33.95;27.92;99854.13;5092401;28;20659;-73
2023/08/14 05:33:40;;;;;;;4.13;3.50;;;;;;;34.05;27.94;99862.75;5092589;28;20223;-73
2023/08/14 05:36:06;;;;;;;4.00;3.60;;;;;;;34.14;27.82;99854.41;5092253;28;20195;-73
2023/08/14 05:38:34;;;;;;;7.03;3.38;;;;;;;33.98;28.02;99853.44;5093041;28;20223;-75
2023/08/14 05:41:01;;;;;;;9.93;4.10;;;;;;;34.32;27.33;99850.31;5092317;28;20199;-74
2023/08/14 05:43:28;;;;;;;17.50;4.10;;;;;;;34.73;27.03;99845.34;5090333;28;20191;-73
2023/08/14 05:45:54;;;;;;;6.68;3.42;;;;;;;34.74;26.93;99851.69;5091289;28;20202;-72
2023/08/14 05:48:22;;;;;;;5.07;3.40;;;;;;;34.08;27.53;99855.78;5087113;28;20191;-72
2023/08/14 05:50:51;;;;;;;4.35;3.20;;;;;;;34.06;28.12;99852.56;5091941;28;20286;-73
2023/08/14 05:53:18;;;;;;;4.60;3.53;;;;;;;33.97;28.09;99849.09;5084006;28;20755;-64
2023/08/14 05:55:46;;;;;;;8.25;3.80;;;;;;;34.02;28.33;99857.94;5079831;28;20640;-66
2023/08/14 05:58:13;;;;;;;5.05;3.53;;;;;;;33.85;28.30;99851.81;5079615;28;20188;-65
2023/08/14 06:00:40;;;;;;;4.70;4.17;;;;;;;32.94;29.83;99849.97;5078206;28;20192;-65
2023/08/14 06:03:08;;;;;;;8.60;3.40;;;;;;;32.39;30.42;99838.31;5072013;28;20245;-65
2023/08/14 06:05:35;;;;;;;10.63;3.57;;;;;;;32.11;31.29;99839.84;5078829;28;20274;-66
2023/08/14 06:08:03;;;;;;;6.27;4.43;;;;;;;31.98;31.66;99843.59;5088209;28;20248;-64
2023/08/14 06:10:30;;;;;;;5.77;3.37;;;;;;;31.91;31.53;99853.47;5092056;28;20198;-65
2023/08/14 06:12:58;;;;;;;8.33;4.20;;;;;;;31.75;31.99;99855.91;5091504;28;20203;-64
2023/08/14 06:15:25;;;;;;;6.90;3.63;;;;;;;31.56;32.69;99852.69;5090420;28;20686;-66
2023/08/14 06:17:52;;;;;;;6.13;3.67;;;;;;;31.47;33.25;99854.66;5091969;28;20231;-67
2023/08/14 06:20:20;;;;;;;7.07;3.57;;;;;;;31.39;32.83;99851.94;5091610;28;20245;-65
2023/08/14 06:22:47;;;;;;;6.67;3.50;;;;;;;31.40;33.44;99843.34;5091514;28;20655;-66
2023/08/14 06:25:15;;;;;;;8.73;3.47;;;;;;;31.44;33.09;99855.28;5091530;28;20195;-65
2023/08/14 06:27:42;;;;;;;8.70;3.50;;;;;;;31.65;32.74;99853.50;5090788;28;20268;-65
2023/08/14 06:30:11;;;;;;;5.93;3.60;;;;;;;32.18;31.93;99853.88;5089454;28;20623;-64
2023/08/14 06:32:39;;;;;;;7.20;3.20;;;;;;;32.56;30.91;99865.72;5091894;28;20219;-64
2023/08/14 06:35:07;;;;;;;8.90;3.77;;;;;;;32.67;30.66;99861.44;5088842;28;20219;-63
2023/08/14 06:37:34;;;;;;;3.80;3.00;;;;;;;32.35;31.35;99851.09;5071759;28;20319;-64
2023/08/14 06:40:01;;;;;;;3.60;3.30;;;;;;;32.64;31.18;99855.78;5077412;28;20236;-63
2023/08/14 06:42:27;;;;;;;3.43;3.13;;;;;;;32.82;30.90;99858.16;5075782;28;20245;-64
2023/08/14 06:44:54;;;;;;;6.07;3.17;;;;;;;32.84;30.71;99861.38;5080987;28;20261;-65
2023/08/14 06:47:22;;;;;;;5.43;2.77;;;;;;;33.07;30.70;99854.41;5083971;28;20210;-65
2023/08/14 06:49:49;;;;;;;10.83;3.43;;;;;;;32.86;30.66;99864.59;5085521;28;20206;-64
2023/08/14 06:52:16;;;;;;;3.97;3.17;;;;;;;32.67;31.07;99864.19;5077834;28;20257;-64
2023/08/14 06:54:42;;;;;;;17.20;4.27;;;;;;;32.30;31.83;99867.75;5072795;28;20307;-64
2023/08/14 06:57:09;;;;;;;3.33;3.03;;;;;;;32.12;32.14;99868.94;5088812;28;20182;-63
2023/08/14 06:59:36;;;;;;;3.33;3.17;;;;;;;31.97;32.02;99852.19;5073595;28;20196;-63
2023/08/14 07:02:02;;;;;;;12.87;3.97;;;;;;;32.08;32.23;99865.22;5088040;28;20191;-64
2023/08/14 07:04:31;;;;;;;12.30;3.37;;;;;;;32.42;32.24;99869.84;5091028;28;20662;-63
2023/08/14 07:06:57;;;;;;;4.77;3.40;;;;;;;32.62;31.43;99869.09;5083475;28;20209;-63
2023/08/14 07:09:24;;;;;;;4.50;3.07;;;;;;;32.61;31.19;99868.28;5089199;28;20245;-64
2023/08/14 07:11:51;;;;;;;3.70;2.90;;;;;;;32.81;31.45;99870.28;5091943;28;20671;-65
2023/08/14 07:14:17;;;;;;;4.23;2.93;;;;;;;32.91;30.97;99867.16;5084536;28;20753;-66
2023/08/14 07:16:44;;;;;;;9.53;3.27;;;;;;;33.07;30.82;99870.91;5081486;28;20739;-64
2023/08/14 07:19:11;;;;;;;5.07;3.47;;;;;;;33.19;30.89;99873.75;5082456;28;20241;-65
2023/08/14 07:21:39;;;;;;;5.40;3.17;;;;;;;33.07;31.23;99870.91;5088011;28;20191;-63
2023/08/14 07:24:06;;;;;;;3.93;2.90;;;;;;;32.97;30.46;99873.25;5084001;28;20702;-62
2023/08/14 07:26:33;;;;;;;2.80;2.63;;;;;;;33.03;30.50;99867.22;5082695;28;20542;-62
2023/08/14 07:28:59;;;;;;;9.23;3.42;;;;;;;32.85;30.71;99860.22;5082433;28;20188;-63
2023/08/14 07:31:26;;;;;;;8.13;2.90;;;;;;;32.74;31.00;99864.47;5081617;28;20195;-64
2023/08/14 07:33:53;;;;;;;3.60;3.17;;;;;;;32.84;30.95;99866.88;5082772;28;20253;-64
2023/08/14 07:36:19;;;;;;;3.10;2.80;;;;;;;32.48;30.15;99866.56;5082748;28;20246;-63
2023/08/14 07:38:47;;;;;;;4.53;2.85;;;;;;;32.56;31.14;99865.72;5085753;28;20767;-62
2023/08/14 07:41:14;;;;;;;9.80;2.63;;;;;;;32.68;31.25;99860.31;5081814;28;20188;-64
2023/08/14 07:43:41;;;;;;;7.13;2.90;;;;;;;32.74;30.97;99861.72;5082066;28;20256;-65
2023/08/14 07:46:08;;;;;;;6.63;3.30;;;;;;;32.85;31.01;99857.47;5086354;28;20229;-63
2023/08/14 07:48:34;;;;;;;6.33;3.40;;;;;;;33.05;30.11;99858.63;5082305;28;20660;-65
2023/08/14 07:51:01;;;;;;;8.37;3.03;;;;;;;32.96;29.85;99858.69;5081468;28;20261;-64
2023/08/14 07:53:28;;;;;;;15.63;3.40;;;;;;;33.01;29.98;99855.75;5084776;28;20191;-65
2023/08/14 07:55:56;;;;;;;4.60;3.40;;;;;;;33.03;29.63;99836.94;5081222;28;20196;-64
2023/08/14 07:58:22;;;;;;;5.00;2.83;;;;;;;32.86;30.96;99847.25;5084601;28;20192;-62
2023/08/14 08:00:49;;;;;;;8.23;3.10;;;;;;;32.95;30.60;99848.81;5084590;28;20184;-64
2023/08/14 08:03:16;;;;;;;4.20;2.70;;;;;;;32.93;30.17;99848.38;5081157;28;20279;-63
2023/08/14 08:05:42;;;;;;;9.07;3.33;;;;;;;33.06;29.98;99854.72;5081994;28;20192;-63
2023/08/14 08:08:09;;;;;;;3.97;3.00;;;;;;;32.95;29.85;99851.56;5083973;28;20223;-61
2023/08/14 08:10:36;;;;;;;3.33;2.97;;;;;;;33.06;30.00;99850.03;5084087;28;20184;-62
2023/08/14 08:13:04;;;;;;;6.97;3.07;;;;;;;33.17;29.88;99848.50;5079981;28;20226;-61
2023/08/14 08:15:31;;;;;;;3.00;2.70;;;;;;;33.17;29.10;99854.03;5073917;28;20927;-63
2023/08/14 08:17:58;;;;;;;4.13;3.37;;;;;;;33.25;30.04;99849.56;5083768;28;20195;-63
2023/08/14 08:20:25;;;;;;;10.32;3.90;;;;;;;32.92;29.65;99852.22;5090354;28;20731;-62
2023/08/14 08:22:51;;;;;;;4.43;2.97;;;;;;;32.82;30.45;99838.88;5091792;28;20199;-62
2023/08/14 08:25:19;;;;;;;12.97;3.43;;;;;;;32.84;29.92;99844.88;5081417;28;20257;-62
2023/08/14 08:27:45;;;;;;;6.10;2.90;;;;;;;32.88;30.80;99834.81;5091664;28;20192;-63
2023/08/14 08:30:14;;;;;;;6.00;3.10;;;;;;;33.11;30.27;99838.81;5093622;28;20306;-62
2023/08/14 08:32:40;;;;;;;3.93;2.93;;;;;;;33.29;28.47;99843.06;5081836;28;20192;-63
2023/08/14 08:35:08;;;;;;;3.13;2.83;;;;;;;33.13;29.85;99831.03;5079749;28;20269;-62
2023/08/14 08:37:35;;;;;;;6.87;2.83;;;;;;;33.23;29.97;99832.56;5093931;28;20227;-62
2023/08/14 08:40:04;;;;;;;3.05;2.55;;;;;;;33.13;29.51;99830.22;5092596;28;20249;-61
2023/08/14 08:42:31;;;;;;;5.45;2.80;;;;;;;33.18;28.87;99833.59;5092910;28;20206;-62
2023/08/14 08:45:02;;;;;;;3.07;2.57;;;;;;;33.15;29.75;99834.25;5090153;28;20690;-63
2023/08/14 08:47:36;;;;;;;6.07;2.75;;;;;;;33.07;28.36;99840.63;5092806;28;20206;-63
2023/08/14 08:50:03;;;;;;;4.83;2.70;;;;;;;32.54;29.39;99836.94;5088527;28;20238;-63
2023/08/14 08:52:32;;;;;;;6.00;3.43;;;;;;;32.40;30.22;99812.41;5086302;28;20658;-63
2023/08/14 08:55:01;;;;;;;4.93;3.17;;;;;;;32.01;30.55;99826.44;5084822;28;20223;-62
2023/08/14 08:57:28;;;;;;;3.57;3.30;;;;;;;32.05;32.39;99813.66;5092683;28;20209;-63
2023/08/14 08:59:58;;;;;;;3.70;3.10;;;;;;;32.14;31.71;99819.91;5093244;28;20252;-63
2023/08/14 09:02:25;;;;;;;3.50;3.07;;;;;;;32.20;32.31;99815.84;5092493;28;20195;-62
2023/08/14 09:04:53;;;;;;;4.67;2.70;;;;;;;32.20;31.21;99818.59;5090278;28;20252;-62
2023/08/14 09:07:20;;;;;;;6.47;3.07;;;;;;;32.10;30.80;99827.22;5080151;28;20253;-62
2023/08/14 09:09:46;;;;;;;10.17;3.13;;;;;;;31.98;31.09;99821.63;5069935;28;20192;-62
2023/08/14 09:12:13;;;;;;;3.77;2.77;;;;;;;31.87;31.66;99828.59;5080234;28;20252;-63
2023/08/14 09:14:43;;;;;;;6.80;2.73;;;;;;;31.83;31.13;99824.06;5091849;28;20277;-63
2023/08/14 09:17:11;;;;;;;6.97;2.90;;;;;;;31.85;31.77;99821.81;5092135;28;20566;-63
2023/08/14 09:19:39;;;;;;;4.90;2.80;;;;;;;31.87;31.39;99820.34;5090798;28;20290;-63
2023/08/14 09:22:08;;;;;;;2.90;2.70;;;;;;;31.82;31.82;99817.78;5091246;28;20213;-63
2023/08/14 09:24:37;;;;;;;5.20;2.53;;;;;;;31.82;29.77;99823.28;5080882;28;20188;-63
2023/08/14 09:27:04;;;;;;;3.23;2.93;;;;;;;31.80;29.97;99820.03;5080624;28;20188;-63
2023/08/14 09:29:33;;;;;;;4.53;2.70;;;;;;;31.72;30.41;99817.31;5075618;28;20204;-63
2023/08/14 09:32:01;;;;;;;5.57;2.50;;;;;;;31.15;30.16;99797.47;5080363;28;20226;-70
2023/08/14 09:34:30;;;;;;;3.87;2.90;;;;;;;31.48;29.83;99815.06;5093131;28;20256;-67
2023/08/14 09:36:58;;;;;;;3.23;2.80;;;;;;;31.59;30.13;99821.84;5092090;28;20778;-67
2023/08/14 09:39:26;;;;;;;4.13;3.00;;;;;;;31.64;30.32;99805.19;5093230;28;20214;-67
2023/08/14 09:41:52;;;;;;;4.00;2.77;;;;;;;31.61;30.62;99800.31;5093107;28;20199;-64
2023/08/14 09:44:20;;;;;;;4.23;2.77;;;;;;;31.92;30.56;99800.94;5088186;28;20191;-64
2023/08/14 09:46:49;;;;;;;2.53;2.30;;;;;;;32.16;29.41;99801.16;5082034;28;20249;-64
2023/08/14 09:49:17;;;;;;;2.73;2.53;;;;;;;32.24;29.99;99805.81;5072211;28;20195;-64
2023/08/14 09:51:54;;;;;;;4.17;2.67;;;;;;;32.41;29.49;99803.00;5072250;28;20188;-65
2023/08/14 09:54:21;;;;;;;3.07;2.87;;;;;;;32.48;28.42;99808.78;5072165;28;20290;-64
2023/08/14 09:56:51;;;;;;;3.13;2.93;;;;;;;32.53;29.81;99807.78;5071984;28;20245;-65
2023/08/14 09:59:18;;;;;;;2.80;2.50;;;;;;;32.56;28.27;99799.69;5078833;28;20216;-64
2023/08/14 10:01:49;;;;;;;2.57;2.37;;;;;;;32.58;28.15;99808.41;5080744;28;20191;-64
2023/08/14 10:04:18;;;;;;;4.00;2.97;;;;;;;32.68;28.72;99794.28;5074622;28;20181;-63
2023/08/14 10:06:45;;;;;;;2.70;2.50;;;;;;;32.58;27.78;99791.09;5077299;28;20278;-63
2023/08/14 10:09:12;;;;;;;5.07;3.00;;;;;;;32.65;28.28;99794.94;5092228;28;20199;-63
2023/08/14 10:11:40;;;;;;;3.13;2.83;;;;;;;32.52;28.78;99793.25;5092843;28;20187;-63
2023/08/14 10:14:13;;;;;;;3.47;2.63;;;;;;;32.11;28.96;99787.59;5092743;28;20192;-64
2023/08/14 10:16:42;;;;;;;3.10;2.90;;;;;;;31.83;29.23;99791.91;5091111;28;20249;-64
2023/08/14 10:19:13;;;;;;;2.70;2.50;;;;;;;32.20;28.66;99788.38;5071970;28;20265;-64
2023/08/14 10:21:41;;;;;;;2.70;2.60;;;;;;;32.42;28.58;99788.09;5071897;28;20249;-63
2023/08/14 10:24:08;;;;;;;2.90;2.70;;;;;;;32.59;28.08;99781.69;5071370;28;20192;-64
2023/08/14 10:26:35;;;;;;;5.93;2.83;;;;;;;32.79;28.32;99775.41;5074253;28;20252;-63
2023/08/14 10:29:04;;;;;;;2.73;2.53;;;;;;;33.00;28.25;99774.28;5091169;28;20694;-64
2023/08/14 10:31:32;;;;;;;3.47;2.93;;;;;;;33.14;28.15;99772.06;5091170;28;20198;-65
2023/08/14 10:33:59;;;;;;;3.03;2.83;;;;;;;33.36;28.89;99750.81;5082667;28;20188;-66
2023/08/14 10:36:28;;;;;;;3.83;2.53;;;;;;;33.37;28.49;99763.44;5077490;28;20296;-64
2023/08/14 10:38:55;;;;;;;3.00;2.70;;;;;;;33.11;28.28;99764.47;5086023;28;20265;-64
2023/08/14 10:41:22;;;;;;;2.40;2.22;;;;;;;32.95;28.01;99768.97;5091184;28;20256;-64
2023/08/14 10:43:50;;;;;;;5.43;2.63;;;;;;;32.96;28.65;99743.06;5091059;28;20230;-64
2023/08/14 10:46:17;;;;;;;3.03;2.80;;;;;;;33.18;27.92;99763.91;5089950;28;20187;-65
2023/08/14 10:48:49;;;;;;;2.67;2.58;;;;;;;33.47;27.92;99763.03;5091295;28;20252;-65
2023/08/14 10:51:20;;;;;;;2.90;2.67;;;;;;;33.62;27.81;99756.84;5091328;28;20260;-64
2023/08/14 10:53:47;;;;;;;3.92;2.50;;;;;;;33.06;28.00;99756.41;5091355;28;20191;-64
2023/08/14 10:56:14;;;;;;;4.38;2.55;;;;;;;33.20;28.19;99745.91;5091400;28;20214;-66
2023/08/14 10:58:48;;;;;;;2.75;2.55;;;;;;;33.20;28.17;99723.88;5091612;28;20191;-64
2023/08/14 11:01:15;;;;;;;2.30;2.20;;;;;;;33.57;28.05;99735.03;5084825;28;20184;-64
2023/08/14 11:04:03;;;;;;;5.80;2.85;;;;;;;33.26;27.96;99736.31;5083179;28;20248;-65
2023/08/14 11:07:01;;;;;;;2.75;2.53;;;;;;;33.07;28.73;99737.97;5069919;28;20821;-64
2023/08/14 11:09:29;;;;;;;3.55;2.80;;;;;;;33.22;28.39;99735.38;5070124;28;20670;-64
2023/08/14 11:11:56;;;;;;;4.03;2.75;;;;;;;33.15;28.14;99726.84;5070090;28;20309;-65
2023/08/14 11:14:23;;;;;;;3.17;2.90;;;;;;;33.23;28.64;99719.63;5069665;28;20198;-65
2023/08/14 11:16:50;;;;;;;3.53;2.45;;;;;;;33.22;28.43;99734.56;5071667;28;20234;-65
2023/08/14 11:19:19;;;;;;;2.58;2.47;;;;;;;32.69;28.86;99727.06;5082915;28;20188;-65
2023/08/14 11:21:46;;;;;;;2.40;2.30;;;;;;;32.78;28.63;99719.53;5073190;28;20274;-66
2023/08/14 11:24:13;;;;;;;5.43;2.80;;;;;;;32.70;29.00;99728.69;5074354;28;20191;-67
2023/08/14 11:26:40;;;;;;;5.47;2.30;;;;;;;32.26;29.24;99715.53;5079385;28;20203;-64
2023/08/14 11:29:07;;;;;;;4.90;4.50;;;;;;;32.48;29.15;99709.75;5083213;28;20191;-64
2023/08/14 11:31:33;;;;;;;5.27;3.00;;;;;;;32.59;29.78;99708.19;5079748;28;20332;-64
2023/08/14 11:34:00;;;;;;;2.72;2.42;;;;;;;32.76;29.24;99710.84;5074196;28;20660;-64